Dailey, West Virginia
Current Conditions -  °F | °C
As of 6:51 AM on Thursday 23 Oct 2014 (Local Time) from KEKN Reporting Station
Overcast Overcast  
Wind Chill: 39°   Ceiling: 1100
Heat Index: 44°   Visibility: 10mi
Dew Point: 41°   Wind: 10mph
Humidity: 89%   Direction: 300°WNW
Pressure: 30.14"   Gusts: NA
Location:  38.8°N, 79.9°W
Report Text: KEKN 231051Z AUTO 30009KT 10SM OVC011 07/05 A3014 RMK AO2 SLP219 T00670050 TSNO
Loading
Personal Weather Stations






























Interactive Weather Map
Tropical Storm Tracking
New forecast layout! Learn more

10-Day Weather Forecast

Advertisements
Track Severe Weather on mobile